メインページ
METAR-TAF:

METAR-TAF

空港 :

ンジャメナ, チャド

ンジャメナ国際空港

緯度: 12-08N, 経度: 015-02E, 海抜: 295m

現時点の気象観測

当レポートは56分前の23:00(UTC)に作成
の風 5kt
気温 28°C
湿度 27%
気圧 1007 hPa
視程10km以上
1,500メートル以下は雲なし、積乱雲なし

METAR: FTTJ 242300Z 35005KT CAVOK 28/07 Q1007 NOSIG

時間: 00:56 (23:56 UTC)

予報

当レポートは6時間56分前の17:00(UTC)に作成
予報は24日の 18時(UTC)から 25日の 24時(UTC)まで有効
北/北東の風 6kt
視程: 8000m

TAF: FTTJ 241700Z 2418/2524 03006KT 8000 NSC

4,000以上の空港の気象観測と天気予報(METAR報とTAF報)

利用可能な観測所は地図上に黄色い丸と赤い丸で示す。

丸の上にカーソルを重ねると観測所名を参照できる。

次にクリックすると気象観測と天気予報を参照できる。

マップの切り替え:黒色「×」印の緑ボタンをクリックして拡大、「-」印の緑ボタンをクリックして縮小、緑色の三角印をクリックして隣りの地図に切り替え


METAR-TAF: